sensor_id;sensor_type;location;lat;lon;timestamp;P1;durP1;ratioP1;P2;durP2;ratioP2
24151;SDS011;12311;50.866;4.332;2023-08-24T00:01:41;7.55;;;3.80;;
24151;SDS011;12311;50.866;4.332;2023-08-24T00:04:07;10.75;;;3.85;;
24151;SDS011;12311;50.866;4.332;2023-08-24T00:06:33;6.10;;;3.33;;
24151;SDS011;12311;50.866;4.332;2023-08-24T00:08:59;7.47;;;3.58;;
24151;SDS011;12311;50.866;4.332;2023-08-24T00:11:25;7.30;;;3.45;;
24151;SDS011;12311;50.866;4.332;2023-08-24T00:13:50;6.47;;;3.40;;
24151;SDS011;12311;50.866;4.332;2023-08-24T00:16:17;8.70;;;4.07;;
24151;SDS011;12311;50.866;4.332;2023-08-24T00:18:43;7.57;;;3.90;;
24151;SDS011;12311;50.866;4.332;2023-08-24T00:21:10;6.95;;;3.63;;
24151;SDS011;12311;50.866;4.332;2023-08-24T00:23:36;8.93;;;3.85;;
24151;SDS011;12311;50.866;4.332;2023-08-24T00:26:01;6.25;;;3.17;;
24151;SDS011;12311;50.866;4.332;2023-08-24T00:28:27;8.45;;;3.60;;
24151;SDS011;12311;50.866;4.332;2023-08-24T00:30:53;6.63;;;3.05;;
24151;SDS011;12311;50.866;4.332;2023-08-24T00:33:18;5.78;;;3.58;;
24151;SDS011;12311;50.866;4.332;2023-08-24T00:35:44;7.50;;;3.90;;
24151;SDS011;12311;50.866;4.332;2023-08-24T00:38:10;6.90;;;3.80;;
24151;SDS011;12311;50.866;4.332;2023-08-24T00:40:36;7.05;;;3.53;;
24151;SDS011;12311;50.866;4.332;2023-08-24T00:43:03;6.40;;;3.78;;
24151;SDS011;12311;50.866;4.332;2023-08-24T00:45:29;6.00;;;3.17;;
24151;SDS011;12311;50.866;4.332;2023-08-24T00:47:58;8.05;;;3.60;;
24151;SDS011;12311;50.866;4.332;2023-08-24T00:50:24;13.40;;;4.28;;
24151;SDS011;12311;50.866;4.332;2023-08-24T00:52:50;5.82;;;3.65;;
24151;SDS011;12311;50.866;4.332;2023-08-24T00:55:15;9.00;;;3.75;;
24151;SDS011;12311;50.866;4.332;2023-08-24T00:57:42;8.68;;;3.60;;
24151;SDS011;12311;50.866;4.332;2023-08-24T01:00:08;6.30;;;3.60;;
24151;SDS011;12311;50.866;4.332;2023-08-24T01:02:37;7.47;;;3.60;;
24151;SDS011;12311;50.866;4.332;2023-08-24T01:05:03;5.93;;;3.42;;
24151;SDS011;12311;50.866;4.332;2023-08-24T01:07:30;5.80;;;3.40;;
24151;SDS011;12311;50.866;4.332;2023-08-24T01:09:57;5.85;;;3.63;;
24151;SDS011;12311;50.866;4.332;2023-08-24T01:15:13;6.00;;;3.07;;
24151;SDS011;12311;50.866;4.332;2023-08-24T01:17:52;6.70;;;3.70;;
24151;SDS011;12311;50.866;4.332;2023-08-24T01:20:19;6.75;;;4.00;;
24151;SDS011;12311;50.866;4.332;2023-08-24T01:23:05;5.85;;;3.50;;
24151;SDS011;12311;50.866;4.332;2023-08-24T01:25:42;6.15;;;3.80;;
24151;SDS011;12311;50.866;4.332;2023-08-24T01:28:13;6.43;;;3.17;;
24151;SDS011;12311;50.866;4.332;2023-08-24T01:30:41;8.77;;;3.85;;
24151;SDS011;12311;50.866;4.332;2023-08-24T01:33:09;6.25;;;3.85;;
24151;SDS011;12311;50.866;4.332;2023-08-24T01:35:37;7.88;;;4.25;;
24151;SDS011;12311;50.866;4.332;2023-08-24T01:38:03;5.95;;;3.55;;
24151;SDS011;12311;50.866;4.332;2023-08-24T01:43:32;7.20;;;3.42;;
24151;SDS011;12311;50.866;4.332;2023-08-24T01:46:03;7.47;;;3.97;;
24151;SDS011;12311;50.866;4.332;2023-08-24T01:48:29;6.22;;;3.78;;
24151;SDS011;12311;50.866;4.332;2023-08-24T01:50:59;5.68;;;3.88;;
24151;SDS011;12311;50.866;4.332;2023-08-24T01:53:27;9.52;;;4.25;;
24151;SDS011;12311;50.866;4.332;2023-08-24T01:55:55;9.93;;;4.45;;
24151;SDS011;12311;50.866;4.332;2023-08-24T01:58:20;6.82;;;3.47;;
24151;SDS011;12311;50.866;4.332;2023-08-24T02:00:46;8.05;;;3.60;;
24151;SDS011;12311;50.866;4.332;2023-08-24T02:03:12;5.80;;;3.50;;
24151;SDS011;12311;50.866;4.332;2023-08-24T02:05:37;10.13;;;3.88;;
24151;SDS011;12311;50.866;4.332;2023-08-24T02:08:03;10.63;;;4.13;;
24151;SDS011;12311;50.866;4.332;2023-08-24T02:10:29;8.23;;;3.72;;
24151;SDS011;12311;50.866;4.332;2023-08-24T02:12:54;6.65;;;4.38;;
24151;SDS011;12311;50.866;4.332;2023-08-24T02:15:20;10.48;;;4.85;;
24151;SDS011;12311;50.866;4.332;2023-08-24T02:17:46;9.00;;;4.25;;
24151;SDS011;12311;50.866;4.332;2023-08-24T02:20:11;9.82;;;4.63;;
24151;SDS011;12311;50.866;4.332;2023-08-24T02:22:38;7.68;;;4.30;;
24151;SDS011;12311;50.866;4.332;2023-08-24T02:25:08;8.70;;;4.65;;
24151;SDS011;12311;50.866;4.332;2023-08-24T02:27:34;8.25;;;4.63;;
24151;SDS011;12311;50.866;4.332;2023-08-24T02:30:00;9.45;;;4.65;;
24151;SDS011;12311;50.866;4.332;2023-08-24T02:32:25;8.38;;;4.35;;
24151;SDS011;12311;50.866;4.332;2023-08-24T02:34:51;11.90;;;5.20;;
24151;SDS011;12311;50.866;4.332;2023-08-24T02:37:17;10.45;;;5.20;;
24151;SDS011;12311;50.866;4.332;2023-08-24T02:39:43;9.73;;;4.80;;
24151;SDS011;12311;50.866;4.332;2023-08-24T02:42:08;7.97;;;4.70;;
24151;SDS011;12311;50.866;4.332;2023-08-24T02:44:34;6.95;;;4.35;;
24151;SDS011;12311;50.866;4.332;2023-08-24T02:47:00;8.20;;;4.38;;
24151;SDS011;12311;50.866;4.332;2023-08-24T02:49:26;9.52;;;4.82;;
24151;SDS011;12311;50.866;4.332;2023-08-24T02:51:51;10.18;;;5.10;;
24151;SDS011;12311;50.866;4.332;2023-08-24T02:54:17;8.27;;;4.78;;
24151;SDS011;12311;50.866;4.332;2023-08-24T02:56:43;8.65;;;4.55;;
24151;SDS011;12311;50.866;4.332;2023-08-24T02:59:09;7.97;;;4.55;;
24151;SDS011;12311;50.866;4.332;2023-08-24T03:01:34;7.85;;;4.85;;
24151;SDS011;12311;50.866;4.332;2023-08-24T03:04:03;10.32;;;5.43;;
24151;SDS011;12311;50.866;4.332;2023-08-24T03:06:30;10.32;;;4.93;;
24151;SDS011;12311;50.866;4.332;2023-08-24T03:08:56;10.10;;;4.40;;
24151;SDS011;12311;50.866;4.332;2023-08-24T03:11:22;9.60;;;4.78;;
24151;SDS011;12311;50.866;4.332;2023-08-24T03:13:47;9.68;;;4.43;;
24151;SDS011;12311;50.866;4.332;2023-08-24T03:16:13;8.48;;;4.93;;
24151;SDS011;12311;50.866;4.332;2023-08-24T03:18:39;9.07;;;4.60;;
24151;SDS011;12311;50.866;4.332;2023-08-24T03:21:05;8.85;;;4.90;;
24151;SDS011;12311;50.866;4.332;2023-08-24T03:23:31;8.60;;;4.60;;
24151;SDS011;12311;50.866;4.332;2023-08-24T03:25:57;8.23;;;4.60;;
24151;SDS011;12311;50.866;4.332;2023-08-24T03:28:23;10.23;;;4.38;;
24151;SDS011;12311;50.866;4.332;2023-08-24T03:30:50;7.72;;;4.43;;
24151;SDS011;12311;50.866;4.332;2023-08-24T03:33:16;7.72;;;4.13;;
24151;SDS011;12311;50.866;4.332;2023-08-24T03:35:42;7.57;;;4.40;;
24151;SDS011;12311;50.866;4.332;2023-08-24T03:38:08;7.70;;;4.50;;
24151;SDS011;12311;50.866;4.332;2023-08-24T03:40:33;7.43;;;4.30;;
24151;SDS011;12311;50.866;4.332;2023-08-24T03:43:01;13.00;;;4.30;;
24151;SDS011;12311;50.866;4.332;2023-08-24T03:45:27;9.68;;;5.07;;
24151;SDS011;12311;50.866;4.332;2023-08-24T03:47:53;9.13;;;4.90;;
24151;SDS011;12311;50.866;4.332;2023-08-24T03:50:19;8.65;;;4.47;;
24151;SDS011;12311;50.866;4.332;2023-08-24T03:52:44;9.38;;;4.90;;
24151;SDS011;12311;50.866;4.332;2023-08-24T03:55:10;7.65;;;4.20;;
24151;SDS011;12311;50.866;4.332;2023-08-24T03:57:36;9.77;;;4.63;;
24151;SDS011;12311;50.866;4.332;2023-08-24T04:00:03;8.23;;;4.47;;
24151;SDS011;12311;50.866;4.332;2023-08-24T04:02:32;7.35;;;4.03;;
24151;SDS011;12311;50.866;4.332;2023-08-24T04:04:58;7.88;;;4.85;;
24151;SDS011;12311;50.866;4.332;2023-08-24T04:07:23;7.32;;;4.40;;
24151;SDS011;12311;50.866;4.332;2023-08-24T04:09:49;8.90;;;4.43;;
24151;SDS011;12311;50.866;4.332;2023-08-24T04:12:15;8.02;;;4.22;;
24151;SDS011;12311;50.866;4.332;2023-08-24T04:14:40;7.20;;;4.40;;
24151;SDS011;12311;50.866;4.332;2023-08-24T04:17:06;11.65;;;5.10;;
24151;SDS011;12311;50.866;4.332;2023-08-24T04:19:31;8.02;;;4.53;;
24151;SDS011;12311;50.866;4.332;2023-08-24T04:21:57;7.20;;;4.68;;
24151;SDS011;12311;50.866;4.332;2023-08-24T04:24:23;7.10;;;4.72;;
24151;SDS011;12311;50.866;4.332;2023-08-24T04:26:50;7.47;;;4.43;;
24151;SDS011;12311;50.866;4.332;2023-08-24T04:29:16;7.53;;;4.80;;
24151;SDS011;12311;50.866;4.332;2023-08-24T04:31:42;7.75;;;4.80;;
24151;SDS011;12311;50.866;4.332;2023-08-24T04:34:08;10.20;;;5.40;;
24151;SDS011;12311;50.866;4.332;2023-08-24T04:36:34;8.60;;;4.75;;
24151;SDS011;12311;50.866;4.332;2023-08-24T04:39:00;9.23;;;5.03;;
24151;SDS011;12311;50.866;4.332;2023-08-24T04:41:26;10.48;;;5.05;;
24151;SDS011;12311;50.866;4.332;2023-08-24T04:43:52;8.40;;;4.57;;
24151;SDS011;12311;50.866;4.332;2023-08-24T04:46:19;9.55;;;4.65;;
24151;SDS011;12311;50.866;4.332;2023-08-24T04:48:45;8.68;;;4.65;;
24151;SDS011;12311;50.866;4.332;2023-08-24T04:51:11;8.05;;;4.80;;
24151;SDS011;12311;50.866;4.332;2023-08-24T04:53:36;8.85;;;4.63;;
24151;SDS011;12311;50.866;4.332;2023-08-24T04:56:02;9.20;;;5.05;;
24151;SDS011;12311;50.866;4.332;2023-08-24T04:58:28;8.70;;;5.00;;
24151;SDS011;12311;50.866;4.332;2023-08-24T05:00:53;7.93;;;4.80;;
24151;SDS011;12311;50.866;4.332;2023-08-24T05:03:20;8.52;;;4.93;;
24151;SDS011;12311;50.866;4.332;2023-08-24T05:05:46;8.57;;;4.63;;
24151;SDS011;12311;50.866;4.332;2023-08-24T05:08:12;10.95;;;5.18;;
24151;SDS011;12311;50.866;4.332;2023-08-24T05:10:38;12.88;;;4.97;;
24151;SDS011;12311;50.866;4.332;2023-08-24T05:13:04;11.25;;;5.15;;
24151;SDS011;12311;50.866;4.332;2023-08-24T05:15:29;9.38;;;4.90;;
24151;SDS011;12311;50.866;4.332;2023-08-24T05:17:55;7.78;;;4.90;;
24151;SDS011;12311;50.866;4.332;2023-08-24T05:20:24;9.35;;;4.88;;
24151;SDS011;12311;50.866;4.332;2023-08-24T05:22:50;9.73;;;5.18;;
24151;SDS011;12311;50.866;4.332;2023-08-24T05:25:16;11.93;;;5.13;;
24151;SDS011;12311;50.866;4.332;2023-08-24T05:27:42;8.02;;;4.68;;
24151;SDS011;12311;50.866;4.332;2023-08-24T05:30:08;9.93;;;4.97;;
24151;SDS011;12311;50.866;4.332;2023-08-24T05:32:35;8.90;;;4.20;;
24151;SDS011;12311;50.866;4.332;2023-08-24T05:35:04;7.95;;;4.38;;
24151;SDS011;12311;50.866;4.332;2023-08-24T05:37:30;11.05;;;4.90;;
24151;SDS011;12311;50.866;4.332;2023-08-24T05:39:56;8.55;;;4.88;;
24151;SDS011;12311;50.866;4.332;2023-08-24T05:42:21;7.28;;;4.40;;
24151;SDS011;12311;50.866;4.332;2023-08-24T05:44:47;6.40;;;3.85;;
24151;SDS011;12311;50.866;4.332;2023-08-24T05:47:13;12.27;;;4.72;;
24151;SDS011;12311;50.866;4.332;2023-08-24T05:49:39;7.47;;;3.92;;
24151;SDS011;12311;50.866;4.332;2023-08-24T05:52:04;8.40;;;3.70;;
24151;SDS011;12311;50.866;4.332;2023-08-24T05:54:30;7.07;;;3.80;;
24151;SDS011;12311;50.866;4.332;2023-08-24T05:56:56;7.80;;;3.53;;
24151;SDS011;12311;50.866;4.332;2023-08-24T05:59:25;5.95;;;3.38;;
24151;SDS011;12311;50.866;4.332;2023-08-24T06:01:51;7.32;;;2.97;;
24151;SDS011;12311;50.866;4.332;2023-08-24T06:04:17;7.72;;;3.65;;
24151;SDS011;12311;50.866;4.332;2023-08-24T06:06:42;6.40;;;3.85;;
24151;SDS011;12311;50.866;4.332;2023-08-24T06:09:08;9.60;;;3.92;;
24151;SDS011;12311;50.866;4.332;2023-08-24T06:11:35;7.47;;;3.95;;
24151;SDS011;12311;50.866;4.332;2023-08-24T06:14:01;9.02;;;4.78;;
24151;SDS011;12311;50.866;4.332;2023-08-24T06:16:27;7.80;;;4.15;;
24151;SDS011;12311;50.866;4.332;2023-08-24T06:18:53;7.93;;;4.55;;
24151;SDS011;12311;50.866;4.332;2023-08-24T06:21:19;9.65;;;4.38;;
24151;SDS011;12311;50.866;4.332;2023-08-24T06:23:45;8.23;;;4.10;;
24151;SDS011;12311;50.866;4.332;2023-08-24T06:26:12;9.52;;;4.40;;
24151;SDS011;12311;50.866;4.332;2023-08-24T06:28:38;7.95;;;4.57;;
24151;SDS011;12311;50.866;4.332;2023-08-24T06:31:04;5.97;;;3.60;;
24151;SDS011;12311;50.866;4.332;2023-08-24T06:33:33;6.15;;;3.70;;
24151;SDS011;12311;50.866;4.332;2023-08-24T06:35:59;11.70;;;3.88;;
24151;SDS011;12311;50.866;4.332;2023-08-24T06:38:25;7.25;;;3.33;;
24151;SDS011;12311;50.866;4.332;2023-08-24T06:40:51;5.78;;;3.13;;
24151;SDS011;12311;50.866;4.332;2023-08-24T06:43:16;6.78;;;3.22;;
24151;SDS011;12311;50.866;4.332;2023-08-24T06:45:43;6.50;;;3.15;;
24151;SDS011;12311;50.866;4.332;2023-08-24T06:48:09;8.27;;;3.47;;
24151;SDS011;12311;50.866;4.332;2023-08-24T06:50:35;6.57;;;3.10;;
24151;SDS011;12311;50.866;4.332;2023-08-24T06:53:04;6.28;;;3.05;;
24151;SDS011;12311;50.866;4.332;2023-08-24T06:55:30;7.60;;;3.67;;
24151;SDS011;12311;50.866;4.332;2023-08-24T06:57:56;7.03;;;3.92;;
24151;SDS011;12311;50.866;4.332;2023-08-24T07:00:22;5.90;;;2.97;;
24151;SDS011;12311;50.866;4.332;2023-08-24T07:02:48;6.70;;;3.40;;
24151;SDS011;12311;50.866;4.332;2023-08-24T07:05:15;8.93;;;3.25;;
24151;SDS011;12311;50.866;4.332;2023-08-24T07:07:43;8.60;;;3.85;;
24151;SDS011;12311;50.866;4.332;2023-08-24T07:10:14;5.25;;;3.38;;
24151;SDS011;12311;50.866;4.332;2023-08-24T07:12:40;6.50;;;3.25;;
24151;SDS011;12311;50.866;4.332;2023-08-24T07:15:09;5.30;;;3.10;;
24151;SDS011;12311;50.866;4.332;2023-08-24T07:17:35;7.18;;;3.33;;
24151;SDS011;12311;50.866;4.332;2023-08-24T07:20:01;6.20;;;3.30;;
24151;SDS011;12311;50.866;4.332;2023-08-24T07:22:29;6.68;;;2.90;;
24151;SDS011;12311;50.866;4.332;2023-08-24T07:24:55;5.82;;;3.35;;
24151;SDS011;12311;50.866;4.332;2023-08-24T07:27:21;6.57;;;3.08;;
24151;SDS011;12311;50.866;4.332;2023-08-24T07:29:47;9.75;;;3.50;;
24151;SDS011;12311;50.866;4.332;2023-08-24T07:32:13;5.78;;;3.17;;
24151;SDS011;12311;50.866;4.332;2023-08-24T07:34:38;8.15;;;3.53;;
24151;SDS011;12311;50.866;4.332;2023-08-24T07:37:04;7.00;;;3.53;;
24151;SDS011;12311;50.866;4.332;2023-08-24T07:39:30;5.88;;;3.05;;
24151;SDS011;12311;50.866;4.332;2023-08-24T07:41:57;6.97;;;3.58;;
24151;SDS011;12311;50.866;4.332;2023-08-24T07:44:22;8.05;;;3.30;;
24151;SDS011;12311;50.866;4.332;2023-08-24T07:46:48;7.40;;;3.20;;
24151;SDS011;12311;50.866;4.332;2023-08-24T07:49:14;6.38;;;3.30;;
24151;SDS011;12311;50.866;4.332;2023-08-24T07:51:40;6.68;;;3.05;;
24151;SDS011;12311;50.866;4.332;2023-08-24T07:54:07;13.80;;;3.28;;
24151;SDS011;12311;50.866;4.332;2023-08-24T07:56:33;7.03;;;3.20;;
24151;SDS011;12311;50.866;4.332;2023-08-24T07:58:59;7.28;;;3.08;;
24151;SDS011;12311;50.866;4.332;2023-08-24T08:01:25;6.70;;;3.28;;
24151;SDS011;12311;50.866;4.332;2023-08-24T08:03:50;9.35;;;3.55;;
24151;SDS011;12311;50.866;4.332;2023-08-24T08:06:16;6.53;;;3.13;;
24151;SDS011;12311;50.866;4.332;2023-08-24T08:08:42;7.43;;;3.42;;
24151;SDS011;12311;50.866;4.332;2023-08-24T08:11:09;8.82;;;3.42;;
24151;SDS011;12311;50.866;4.332;2023-08-24T08:13:35;7.80;;;3.45;;
24151;SDS011;12311;50.866;4.332;2023-08-24T08:16:01;7.53;;;3.17;;
24151;SDS011;12311;50.866;4.332;2023-08-24T08:18:34;8.38;;;3.50;;
24151;SDS011;12311;50.866;4.332;2023-08-24T08:21:00;7.75;;;3.58;;
24151;SDS011;12311;50.866;4.332;2023-08-24T08:23:33;8.38;;;3.58;;
24151;SDS011;12311;50.866;4.332;2023-08-24T08:25:58;4.78;;;3.25;;
24151;SDS011;12311;50.866;4.332;2023-08-24T08:28:24;7.93;;;3.78;;
24151;SDS011;12311;50.866;4.332;2023-08-24T08:30:50;6.03;;;3.53;;
24151;SDS011;12311;50.866;4.332;2023-08-24T08:33:15;9.52;;;4.10;;
24151;SDS011;12311;50.866;4.332;2023-08-24T08:35:43;6.55;;;3.50;;
24151;SDS011;12311;50.866;4.332;2023-08-24T08:38:09;7.15;;;3.92;;
24151;SDS011;12311;50.866;4.332;2023-08-24T08:40:36;7.15;;;3.45;;
24151;SDS011;12311;50.866;4.332;2023-08-24T08:43:03;8.88;;;3.47;;
24151;SDS011;12311;50.866;4.332;2023-08-24T08:45:29;8.65;;;4.13;;
24151;SDS011;12311;50.866;4.332;2023-08-24T08:47:58;8.25;;;3.72;;
24151;SDS011;12311;50.866;4.332;2023-08-24T08:52:51;8.23;;;4.00;;
24151;SDS011;12311;50.866;4.332;2023-08-24T08:55:17;8.43;;;3.42;;
24151;SDS011;12311;50.866;4.332;2023-08-24T08:57:45;6.40;;;3.65;;
24151;SDS011;12311;50.866;4.332;2023-08-24T09:00:13;7.88;;;3.58;;
24151;SDS011;12311;50.866;4.332;2023-08-24T09:02:43;8.15;;;3.83;;
24151;SDS011;12311;50.866;4.332;2023-08-24T09:05:11;7.10;;;3.53;;
24151;SDS011;12311;50.866;4.332;2023-08-24T09:07:40;10.02;;;4.00;;
24151;SDS011;12311;50.866;4.332;2023-08-24T09:10:07;6.47;;;3.63;;
24151;SDS011;12311;50.866;4.332;2023-08-24T09:12:33;7.10;;;3.60;;
24151;SDS011;12311;50.866;4.332;2023-08-24T09:14:59;8.68;;;4.57;;
24151;SDS011;12311;50.866;4.332;2023-08-24T09:17:29;11.30;;;4.25;;
24151;SDS011;12311;50.866;4.332;2023-08-24T09:19:58;8.95;;;3.95;;
24151;SDS011;12311;50.866;4.332;2023-08-24T09:22:24;8.05;;;3.95;;
24151;SDS011;12311;50.866;4.332;2023-08-24T09:24:50;9.32;;;4.00;;
24151;SDS011;12311;50.866;4.332;2023-08-24T09:27:17;6.55;;;3.50;;
24151;SDS011;12311;50.866;4.332;2023-08-24T09:29:50;7.07;;;3.63;;
24151;SDS011;12311;50.866;4.332;2023-08-24T09:32:27;8.52;;;3.78;;
24151;SDS011;12311;50.866;4.332;2023-08-24T09:34:54;7.25;;;3.10;;
24151;SDS011;12311;50.866;4.332;2023-08-24T09:37:20;8.07;;;3.38;;
24151;SDS011;12311;50.866;4.332;2023-08-24T09:39:46;6.50;;;3.42;;
24151;SDS011;12311;50.866;4.332;2023-08-24T09:42:12;6.18;;;3.88;;
24151;SDS011;12311;50.866;4.332;2023-08-24T09:44:43;6.43;;;3.83;;
24151;SDS011;12311;50.866;4.332;2023-08-24T09:47:10;6.32;;;3.63;;
24151;SDS011;12311;50.866;4.332;2023-08-24T09:49:36;7.63;;;3.45;;
24151;SDS011;12311;50.866;4.332;2023-08-24T09:52:02;4.53;;;2.88;;
24151;SDS011;12311;50.866;4.332;2023-08-24T09:54:30;5.72;;;3.35;;
24151;SDS011;12311;50.866;4.332;2023-08-24T09:57:00;5.85;;;2.88;;
24151;SDS011;12311;50.866;4.332;2023-08-24T09:59:28;9.07;;;2.97;;
24151;SDS011;12311;50.866;4.332;2023-08-24T10:01:57;4.88;;;2.85;;
24151;SDS011;12311;50.866;4.332;2023-08-24T10:04:28;5.97;;;2.90;;
24151;SDS011;12311;50.866;4.332;2023-08-24T10:07:10;4.50;;;2.58;;
24151;SDS011;12311;50.866;4.332;2023-08-24T10:09:44;6.18;;;2.90;;
24151;SDS011;12311;50.866;4.332;2023-08-24T10:12:14;6.95;;;3.17;;
24151;SDS011;12311;50.866;4.332;2023-08-24T10:14:44;6.55;;;3.15;;
24151;SDS011;12311;50.866;4.332;2023-08-24T10:17:14;5.40;;;3.47;;
24151;SDS011;12311;50.866;4.332;2023-08-24T10:19:41;5.78;;;3.30;;
24151;SDS011;12311;50.866;4.332;2023-08-24T10:22:08;8.80;;;3.92;;
24151;SDS011;12311;50.866;4.332;2023-08-24T10:24:35;6.60;;;3.53;;
24151;SDS011;12311;50.866;4.332;2023-08-24T10:27:02;6.90;;;3.80;;
24151;SDS011;12311;50.866;4.332;2023-08-24T10:29:28;6.25;;;4.05;;
24151;SDS011;12311;50.866;4.332;2023-08-24T10:31:55;5.70;;;4.05;;
24151;SDS011;12311;50.866;4.332;2023-08-24T10:34:21;5.00;;;3.45;;
24151;SDS011;12311;50.866;4.332;2023-08-24T10:36:48;6.28;;;4.03;;
24151;SDS011;12311;50.866;4.332;2023-08-24T10:39:14;7.72;;;4.03;;
24151;SDS011;12311;50.866;4.332;2023-08-24T10:44:21;5.32;;;3.65;;
24151;SDS011;12311;50.866;4.332;2023-08-24T10:49:31;9.00;;;4.35;;
24151;SDS011;12311;50.866;4.332;2023-08-24T10:51:57;9.63;;;4.45;;
24151;SDS011;12311;50.866;4.332;2023-08-24T10:54:29;7.05;;;4.00;;
24151;SDS011;12311;50.866;4.332;2023-08-24T10:56:56;6.80;;;4.03;;
24151;SDS011;12311;50.866;4.332;2023-08-24T10:59:23;7.25;;;4.18;;
24151;SDS011;12311;50.866;4.332;2023-08-24T11:04:18;6.88;;;3.50;;
24151;SDS011;12311;50.866;4.332;2023-08-24T11:06:54;6.13;;;3.13;;
24151;SDS011;12311;50.866;4.332;2023-08-24T11:09:24;4.85;;;3.50;;
24151;SDS011;12311;50.866;4.332;2023-08-24T11:12:00;9.35;;;3.40;;
24151;SDS011;12311;50.866;4.332;2023-08-24T11:14:28;4.82;;;3.30;;
24151;SDS011;12311;50.866;4.332;2023-08-24T11:17:01;7.18;;;3.05;;
24151;SDS011;12311;50.866;4.332;2023-08-24T11:19:52;4.18;;;3.08;;
24151;SDS011;12311;50.866;4.332;2023-08-24T11:22:19;5.07;;;3.42;;
24151;SDS011;12311;50.866;4.332;2023-08-24T11:24:46;5.30;;;3.33;;
24151;SDS011;12311;50.866;4.332;2023-08-24T11:27:12;6.78;;;4.00;;
24151;SDS011;12311;50.866;4.332;2023-08-24T11:29:37;5.03;;;3.00;;
24151;SDS011;12311;50.866;4.332;2023-08-24T11:32:03;4.45;;;3.10;;
24151;SDS011;12311;50.866;4.332;2023-08-24T11:34:29;7.72;;;2.95;;
24151;SDS011;12311;50.866;4.332;2023-08-24T11:36:55;5.07;;;2.97;;
24151;SDS011;12311;50.866;4.332;2023-08-24T11:39:22;6.63;;;3.38;;
24151;SDS011;12311;50.866;4.332;2023-08-24T11:41:59;6.80;;;3.17;;
24151;SDS011;12311;50.866;4.332;2023-08-24T11:44:29;8.18;;;3.20;;
24151;SDS011;12311;50.866;4.332;2023-08-24T11:47:09;5.78;;;3.30;;
24151;SDS011;12311;50.866;4.332;2023-08-24T11:49:35;6.70;;;3.90;;
24151;SDS011;12311;50.866;4.332;2023-08-24T11:52:01;7.72;;;3.30;;
24151;SDS011;12311;50.866;4.332;2023-08-24T11:54:27;4.57;;;3.50;;
24151;SDS011;12311;50.866;4.332;2023-08-24T11:56:52;6.35;;;3.30;;
24151;SDS011;12311;50.866;4.332;2023-08-24T11:59:18;5.10;;;3.40;;
24151;SDS011;12311;50.866;4.332;2023-08-24T12:01:44;4.88;;;3.42;;
24151;SDS011;12311;50.866;4.332;2023-08-24T12:04:11;4.93;;;3.60;;
24151;SDS011;12311;50.866;4.332;2023-08-24T12:06:37;5.80;;;3.10;;
24151;SDS011;12311;50.866;4.332;2023-08-24T12:09:05;5.80;;;3.50;;
24151;SDS011;12311;50.866;4.332;2023-08-24T12:11:34;8.30;;;3.90;;
24151;SDS011;12311;50.866;4.332;2023-08-24T12:14:01;7.75;;;4.13;;
24151;SDS011;12311;50.866;4.332;2023-08-24T12:16:26;6.43;;;3.70;;
24151;SDS011;12311;50.866;4.332;2023-08-24T12:18:57;6.13;;;3.47;;
24151;SDS011;12311;50.866;4.332;2023-08-24T12:21:25;5.97;;;4.25;;
24151;SDS011;12311;50.866;4.332;2023-08-24T12:24:13;4.63;;;3.42;;
24151;SDS011;12311;50.866;4.332;2023-08-24T12:26:39;7.25;;;4.18;;
24151;SDS011;12311;50.866;4.332;2023-08-24T12:29:05;9.82;;;3.60;;
24151;SDS011;12311;50.866;4.332;2023-08-24T12:31:32;6.63;;;3.85;;
24151;SDS011;12311;50.866;4.332;2023-08-24T12:33:59;3.92;;;2.80;;
24151;SDS011;12311;50.866;4.332;2023-08-24T12:36:30;8.48;;;3.63;;
24151;SDS011;12311;50.866;4.332;2023-08-24T12:39:01;6.60;;;3.00;;
24151;SDS011;12311;50.866;4.332;2023-08-24T12:41:29;4.57;;;3.10;;
24151;SDS011;12311;50.866;4.332;2023-08-24T12:43:55;7.00;;;3.38;;
24151;SDS011;12311;50.866;4.332;2023-08-24T12:46:21;7.10;;;3.33;;
24151;SDS011;12311;50.866;4.332;2023-08-24T12:48:46;3.42;;;2.78;;
24151;SDS011;12311;50.866;4.332;2023-08-24T12:51:12;5.43;;;2.97;;
24151;SDS011;12311;50.866;4.332;2023-08-24T12:53:38;9.60;;;2.58;;
24151;SDS011;12311;50.866;4.332;2023-08-24T12:56:03;7.45;;;2.95;;
24151;SDS011;12311;50.866;4.332;2023-08-24T12:58:29;5.93;;;3.28;;
24151;SDS011;12311;50.866;4.332;2023-08-24T13:00:56;3.83;;;2.47;;
24151;SDS011;12311;50.866;4.332;2023-08-24T13:03:21;4.65;;;2.20;;
24151;SDS011;12311;50.866;4.332;2023-08-24T13:05:47;3.17;;;2.08;;
24151;SDS011;12311;50.866;4.332;2023-08-24T13:08:13;2.78;;;1.63;;
24151;SDS011;12311;50.866;4.332;2023-08-24T13:10:39;3.05;;;1.63;;
24151;SDS011;12311;50.866;4.332;2023-08-24T13:13:05;2.33;;;1.50;;
24151;SDS011;12311;50.866;4.332;2023-08-24T13:15:30;2.65;;;1.60;;
24151;SDS011;12311;50.866;4.332;2023-08-24T13:17:56;2.40;;;1.40;;
24151;SDS011;12311;50.866;4.332;2023-08-24T13:20:22;2.97;;;1.52;;
24151;SDS011;12311;50.866;4.332;2023-08-24T13:22:48;4.97;;;1.40;;
24151;SDS011;12311;50.866;4.332;2023-08-24T13:25:14;2.47;;;1.10;;
24151;SDS011;12311;50.866;4.332;2023-08-24T13:27:40;2.33;;;1.35;;
24151;SDS011;12311;50.866;4.332;2023-08-24T13:30:06;2.25;;;1.60;;
24151;SDS011;12311;50.866;4.332;2023-08-24T13:32:32;3.83;;;1.50;;
24151;SDS011;12311;50.866;4.332;2023-08-24T13:35:00;3.08;;;1.20;;
24151;SDS011;12311;50.866;4.332;2023-08-24T13:37:26;2.28;;;1.42;;
24151;SDS011;12311;50.866;4.332;2023-08-24T13:39:51;2.42;;;1.40;;
24151;SDS011;12311;50.866;4.332;2023-08-24T13:42:17;3.03;;;1.50;;
24151;SDS011;12311;50.866;4.332;2023-08-24T13:44:43;4.63;;;1.80;;
24151;SDS011;12311;50.866;4.332;2023-08-24T13:47:10;3.78;;;1.52;;
24151;SDS011;12311;50.866;4.332;2023-08-24T13:49:35;3.78;;;1.58;;
24151;SDS011;12311;50.866;4.332;2023-08-24T13:52:01;4.43;;;1.70;;
24151;SDS011;12311;50.866;4.332;2023-08-24T13:54:27;1.65;;;1.23;;
24151;SDS011;12311;50.866;4.332;2023-08-24T13:56:53;2.20;;;1.23;;
24151;SDS011;12311;50.866;4.332;2023-08-24T13:59:19;2.47;;;1.20;;
24151;SDS011;12311;50.866;4.332;2023-08-24T14:01:46;1.95;;;1.40;;
24151;SDS011;12311;50.866;4.332;2023-08-24T14:04:11;2.45;;;1.48;;
24151;SDS011;12311;50.866;4.332;2023-08-24T14:06:37;2.72;;;1.20;;
24151;SDS011;12311;50.866;4.332;2023-08-24T14:09:03;1.55;;;1.00;;
24151;SDS011;12311;50.866;4.332;2023-08-24T14:11:29;3.10;;;1.13;;
24151;SDS011;12311;50.866;4.332;2023-08-24T14:13:55;3.28;;;1.65;;
24151;SDS011;12311;50.866;4.332;2023-08-24T14:16:22;2.72;;;1.30;;
24151;SDS011;12311;50.866;4.332;2023-08-24T14:18:48;3.13;;;1.35;;
24151;SDS011;12311;50.866;4.332;2023-08-24T14:21:14;4.75;;;1.30;;
24151;SDS011;12311;50.866;4.332;2023-08-24T14:23:40;2.92;;;1.40;;
24151;SDS011;12311;50.866;4.332;2023-08-24T14:26:06;1.45;;;0.98;;
24151;SDS011;12311;50.866;4.332;2023-08-24T14:28:48;2.58;;;1.15;;
24151;SDS011;12311;50.866;4.332;2023-08-24T14:31:19;2.60;;;1.00;;
24151;SDS011;12311;50.866;4.332;2023-08-24T14:33:45;2.10;;;1.40;;
24151;SDS011;12311;50.866;4.332;2023-08-24T14:36:11;2.17;;;1.13;;
24151;SDS011;12311;50.866;4.332;2023-08-24T14:38:40;1.85;;;1.20;;
24151;SDS011;12311;50.866;4.332;2023-08-24T14:41:07;1.88;;;1.20;;
24151;SDS011;12311;50.866;4.332;2023-08-24T14:43:37;3.05;;;1.40;;
24151;SDS011;12311;50.866;4.332;2023-08-24T14:46:03;4.00;;;1.10;;
24151;SDS011;12311;50.866;4.332;2023-08-24T14:48:29;3.25;;;1.30;;
24151;SDS011;12311;50.866;4.332;2023-08-24T14:50:55;2.45;;;1.20;;
24151;SDS011;12311;50.866;4.332;2023-08-24T14:53:22;1.90;;;1.10;;
24151;SDS011;12311;50.866;4.332;2023-08-24T14:55:48;1.88;;;1.58;;
24151;SDS011;12311;50.866;4.332;2023-08-24T14:58:14;2.15;;;0.90;;
24151;SDS011;12311;50.866;4.332;2023-08-24T15:00:39;2.03;;;1.20;;